Time;durP1;ratioP1;P1;durP2;ratioP2;P2;SDS_P1;SDS_P2;PMS_P1;PMS_P2;Temp;Humidity;BMP_temperature;BMP_pressure;BME280_temperature;BME280_humidity;BME280_pressure;Samples;Min_cycle;Max_cycle;Signal;HPM_P1;HPM_P2
2023/07/28 00:01:16;;;;;;;22.90;16.20;;;;;;;18.68;100.00;100412.13;5046626;28;20611;-72
2023/07/28 00:03:43;;;;;;;21.88;15.70;;;;;;;18.67;100.00;100418.47;5042919;28;20782;-73
2023/07/28 00:06:09;;;;;;;23.20;16.58;;;;;;;18.67;100.00;100406.84;5045843;28;20076;-72
2023/07/28 00:08:37;;;;;;;26.85;16.63;;;;;;;18.62;100.00;100413.59;5078669;28;20029;-73
2023/07/28 00:11:03;;;;;;;22.58;16.10;;;;;;;18.70;100.00;100414.66;5052171;28;20037;-73
2023/07/28 00:13:28;;;;;;;24.85;16.02;;;;;;;18.60;100.00;100420.16;5044971;28;20803;-73
2023/07/28 00:15:54;;;;;;;18.13;15.00;;;;;;;18.63;100.00;100417.97;5042667;28;20781;-73
2023/07/28 00:18:21;;;;;;;22.35;16.70;;;;;;;18.69;100.00;100411.13;5045319;28;21272;-73
2023/07/28 00:20:46;;;;;;;24.05;16.48;;;;;;;18.64;100.00;100418.81;5052845;28;20256;-73
2023/07/28 00:23:13;;;;;;;22.73;16.77;;;;;;;18.68;100.00;100417.53;5043643;28;20037;-73
2023/07/28 00:25:38;;;;;;;23.02;16.90;;;;;;;18.69;100.00;100423.78;5046227;28;20047;-72
2023/07/28 00:28:04;;;;;;;23.98;15.75;;;;;;;18.65;100.00;100423.22;5046253;28;20402;-73
2023/07/28 00:30:31;;;;;;;23.48;15.77;;;;;;;18.67;100.00;100420.34;5049277;28;20029;-72
2023/07/28 00:32:56;;;;;;;20.15;15.10;;;;;;;18.60;100.00;100429.09;5046463;28;20043;-72
2023/07/28 00:35:22;;;;;;;19.58;15.48;;;;;;;18.65;100.00;100425.91;5065973;28;20890;-73
2023/07/28 00:37:47;;;;;;;25.05;17.58;;;;;;;18.59;100.00;100430.09;5050708;28;20075;-73
2023/07/28 00:40:13;;;;;;;21.92;16.67;;;;;;;18.67;100.00;100431.16;5050759;28;20724;-72
2023/07/28 00:42:40;;;;;;;21.42;16.20;;;;;;;18.63;100.00;100438.75;5049835;28;20087;-73
2023/07/28 00:45:08;;;;;;;22.30;16.60;;;;;;;18.71;100.00;100433.41;5065853;28;20048;-73
2023/07/28 00:47:35;;;;;;;21.50;15.10;;;;;;;18.73;100.00;100444.91;5055722;28;20037;-73
2023/07/28 00:50:01;;;;;;;22.88;17.40;;;;;;;18.60;100.00;100441.75;5065264;28;20032;-72
2023/07/28 00:52:27;;;;;;;23.48;17.40;;;;;;;18.59;100.00;100451.72;5049590;28;20358;-73
2023/07/28 00:54:53;;;;;;;25.25;18.15;;;;;;;18.66;100.00;100451.91;5030955;28;20893;-73
2023/07/28 00:57:19;;;;;;;25.55;17.80;;;;;;;18.63;100.00;100447.69;5058182;28;20033;-73
2023/07/28 00:59:45;;;;;;;24.40;18.20;;;;;;;18.53;100.00;100448.81;5031632;28;20029;-72
2023/07/28 01:02:12;;;;;;;25.85;18.08;;;;;;;18.52;100.00;100455.19;5063880;28;20807;-74
2023/07/28 01:04:38;;;;;;;30.40;19.05;;;;;;;18.50;100.00;100457.22;5080019;27;20033;-73
2023/07/28 01:07:16;;;;;;;26.70;18.38;;;;;;;18.56;100.00;100459.28;5046616;28;20463;-74
2023/07/28 01:10:03;;;;;;;27.73;19.45;;;;;;;18.49;100.00;100460.91;5028793;28;20119;-75
2023/07/28 01:12:28;;;;;;;27.20;18.58;;;;;;;18.45;100.00;100459.53;5062511;28;20037;-74
2023/07/28 01:14:54;;;;;;;27.58;19.05;;;;;;;18.51;100.00;100464.31;5048320;28;20036;-74
2023/07/28 01:17:20;;;;;;;32.75;21.13;;;;;;;18.47;100.00;100461.06;5046342;28;20026;-73
2023/07/28 01:19:46;;;;;;;30.00;19.30;;;;;;;18.53;100.00;100463.16;5044860;28;20332;-74
2023/07/28 01:22:33;;;;;;;34.53;21.42;;;;;;;18.59;100.00;100454.41;5029347;28;20088;-74
2023/07/28 01:25:34;;;;;;;31.02;19.67;;;;;;;18.60;100.00;100457.94;5047174;28;20045;-74
2023/07/28 01:28:01;;;;;;;32.75;20.20;;;;;;;18.65;100.00;100455.63;5076184;28;20049;-75
2023/07/28 01:30:27;;;;;;;30.35;20.15;;;;;;;18.58;100.00;100458.13;5048344;28;20115;-75
2023/07/28 01:32:57;;;;;;;29.67;19.40;;;;;;;18.57;100.00;100456.41;5056887;28;20037;-74
2023/07/28 01:35:24;;;;;;;31.00;19.63;;;;;;;18.68;100.00;100455.34;5042515;28;20167;-74
2023/07/28 01:37:53;;;;;;;28.55;20.38;;;;;;;18.69;100.00;100446.22;5048236;28;20039;-74
2023/07/28 01:40:19;;;;;;;31.65;19.67;;;;;;;18.68;100.00;100449.94;5054921;28;20037;-75
2023/07/28 01:42:45;;;;;;;31.45;19.50;;;;;;;18.66;100.00;100443.81;5034503;28;20034;-74
2023/07/28 01:45:12;;;;;;;34.85;19.98;;;;;;;18.68;100.00;100440.97;5046744;28;20032;-74
2023/07/28 01:47:38;;;;;;;28.60;18.58;;;;;;;18.67;100.00;100431.16;5046728;28;20068;-74
2023/07/28 01:50:04;;;;;;;27.00;19.15;;;;;;;18.74;100.00;100426.84;5039793;28;20843;-73
2023/07/28 01:52:30;;;;;;;28.77;18.90;;;;;;;18.69;100.00;100438.13;5048313;28;20041;-74
2023/07/28 01:54:55;;;;;;;35.35;19.90;;;;;;;18.69;100.00;100443.53;5047212;28;20136;-72
2023/07/28 01:57:21;;;;;;;26.80;19.05;;;;;;;18.79;100.00;100438.88;5047305;28;20789;-72
2023/07/28 01:59:46;;;;;;;32.85;20.52;;;;;;;18.77;100.00;100432.75;5047188;28;20512;-74
2023/07/28 02:02:12;;;;;;;28.20;18.75;;;;;;;18.76;100.00;100432.94;5047348;28;20041;-75
2023/07/28 02:04:38;;;;;;;30.30;19.95;;;;;;;18.75;100.00;100439.34;5048245;28;20071;-73
2023/07/28 02:07:03;;;;;;;31.52;20.05;;;;;;;18.63;100.00;100436.03;5040353;28;20033;-75
2023/07/28 02:09:29;;;;;;;31.05;19.13;;;;;;;18.66;100.00;100438.41;5057227;28;20425;-73
2023/07/28 02:11:54;;;;;;;32.67;20.45;;;;;;;18.71;100.00;100441.50;5079199;27;20088;-73
2023/07/28 02:14:20;;;;;;;30.67;20.35;;;;;;;18.55;100.00;100446.78;5059851;28;20033;-72
2023/07/28 02:16:46;;;;;;;30.85;20.50;;;;;;;18.71;100.00;100456.88;5046988;28;20037;-73
2023/07/28 02:19:13;;;;;;;38.67;21.73;;;;;;;18.67;100.00;100456.31;5047056;28;20080;-75
2023/07/28 02:21:38;;;;;;;30.88;20.65;;;;;;;18.73;100.00;100454.88;5047317;28;20050;-75
2023/07/28 02:24:04;;;;;;;34.58;21.15;;;;;;;18.68;100.00;100452.66;5041023;28;20026;-75
2023/07/28 02:26:30;;;;;;;33.95;21.33;;;;;;;18.62;100.00;100454.09;5046068;28;20048;-75
2023/07/28 02:28:56;;;;;;;28.67;19.05;;;;;;;18.65;100.00;100452.94;5038241;28;20471;-74
2023/07/28 02:31:21;;;;;;;39.03;21.65;;;;;;;18.73;100.00;100454.88;5043541;28;20813;-75
2023/07/28 02:33:47;;;;;;;33.85;20.40;;;;;;;18.79;100.00;100452.38;5078927;28;20025;-74
2023/07/28 02:36:13;;;;;;;34.45;21.60;;;;;;;18.81;100.00;100453.03;5049275;28;20032;-73
2023/07/28 02:38:39;;;;;;;40.35;22.10;;;;;;;18.75;100.00;100453.69;5048382;28;20051;-73
2023/07/28 02:41:05;;;;;;;48.33;22.40;;;;;;;18.69;100.00;100454.34;5045214;28;20045;-73
2023/07/28 02:43:31;;;;;;;40.25;22.42;;;;;;;18.71;100.00;100459.56;5080727;28;20400;-73
2023/07/28 02:45:57;;;;;;;39.83;23.15;;;;;;;18.68;100.00;100452.66;5080261;28;20040;-73
2023/07/28 02:48:23;;;;;;;38.53;22.65;;;;;;;18.66;100.00;100468.13;5046911;28;20025;-73
2023/07/28 02:50:52;;;;;;;46.00;24.10;;;;;;;18.58;100.00;100468.09;5046380;28;20115;-73
2023/07/28 02:53:18;;;;;;;45.17;22.77;;;;;;;18.58;100.00;100476.19;5048612;28;20049;-73
2023/07/28 02:55:45;;;;;;;49.58;23.88;;;;;;;18.60;100.00;100474.16;5047497;28;20040;-73
2023/07/28 02:58:12;;;;;;;48.15;24.17;;;;;;;18.63;100.00;100484.66;5048714;28;20036;-73
2023/07/28 03:00:43;;;;;;;54.00;25.38;;;;;;;18.53;100.00;100487.47;5044439;28;20056;-74
2023/07/28 03:03:12;;;;;;;49.08;25.02;;;;;;;18.54;100.00;100491.00;5064010;28;20029;-74
2023/07/28 03:05:42;;;;;;;44.25;23.65;;;;;;;18.56;100.00;100495.22;5062982;28;20083;-75
2023/07/28 03:08:34;;;;;;;46.75;24.98;;;;;;;18.66;100.00;100492.44;5045682;28;20052;-72
2023/07/28 03:11:20;;;;;;;50.60;25.00;;;;;;;18.61;100.00;100492.06;5046514;28;20064;-74
2023/07/28 03:13:47;;;;;;;51.13;25.45;;;;;;;18.59;100.00;100485.97;5047928;28;20108;-73
2023/07/28 03:16:13;;;;;;;53.53;27.88;;;;;;;18.56;100.00;100484.41;5039738;28;20123;-73
2023/07/28 03:18:38;;;;;;;61.10;28.58;;;;;;;18.56;100.00;100497.94;5044324;28;20033;-74
2023/07/28 03:21:04;;;;;;;47.63;26.98;;;;;;;18.55;100.00;100496.25;5053965;28;20502;-73
2023/07/28 03:23:30;;;;;;;54.80;27.30;;;;;;;18.58;100.00;100498.63;5043500;28;20324;-73
2023/07/28 03:25:55;;;;;;;52.47;26.65;;;;;;;18.68;100.00;100497.69;5048880;28;20727;-72
2023/07/28 03:28:21;;;;;;;61.67;26.75;;;;;;;18.71;100.00;100495.53;5044464;28;20398;-73
2023/07/28 03:30:46;;;;;;;45.33;25.25;;;;;;;18.61;100.00;100492.91;5049376;28;20493;-72
2023/07/28 03:33:12;;;;;;;59.15;27.48;;;;;;;18.65;100.00;100496.13;5082236;27;20124;-73
2023/07/28 03:35:38;;;;;;;48.78;25.30;;;;;;;18.56;100.00;100492.53;5050396;27;20029;-72
2023/07/28 03:38:08;;;;;;;43.97;24.40;;;;;;;18.59;100.00;100496.78;5051280;28;20140;-73
2023/07/28 03:40:34;;;;;;;52.90;26.92;;;;;;;18.69;100.00;100491.31;5059292;28;20534;-74
2023/07/28 03:43:00;;;;;;;57.22;27.27;;;;;;;18.63;100.00;100495.47;5032091;28;20036;-73
2023/07/28 03:45:26;;;;;;;58.05;27.50;;;;;;;18.64;100.00;100492.59;5042327;28;20093;-72
2023/07/28 03:47:51;;;;;;;52.35;26.75;;;;;;;18.66;100.00;100496.97;5043559;28;20966;-73
2023/07/28 03:50:17;;;;;;;58.63;28.23;;;;;;;18.67;100.00;100495.97;5048896;28;20589;-73
2023/07/28 03:52:44;;;;;;;55.10;27.67;;;;;;;18.61;100.00;100508.25;5047674;28;20025;-74
2023/07/28 03:55:20;;;;;;;60.58;28.67;;;;;;;18.67;100.00;100507.63;5047025;28;20042;-74
2023/07/28 03:57:45;;;;;;;57.80;26.55;;;;;;;18.68;100.00;100498.56;5039347;28;20044;-73
2023/07/28 04:00:13;;;;;;;60.03;28.45;;;;;;;18.66;100.00;100502.38;5065505;28;20997;-73
2023/07/28 04:02:43;;;;;;;57.95;29.38;;;;;;;18.52;100.00;100503.78;5050034;28;20101;-71
2023/07/28 04:05:09;;;;;;;64.50;28.00;;;;;;;18.58;100.00;100506.75;5053940;28;20052;-74
2023/07/28 04:07:34;;;;;;;59.10;28.90;;;;;;;18.57;100.00;100513.13;5057661;28;20033;-73
2023/07/28 04:10:00;;;;;;;57.55;27.17;;;;;;;18.52;100.00;100511.91;5049234;28;20045;-74
2023/07/28 04:12:26;;;;;;;60.10;28.00;;;;;;;18.53;100.00;100513.63;5049595;28;20033;-73
2023/07/28 04:14:51;;;;;;;68.20;29.30;;;;;;;18.44;100.00;100523.50;5049768;28;20033;-72
2023/07/28 04:17:17;;;;;;;69.45;29.40;;;;;;;18.53;100.00;100527.97;5047759;28;20467;-73
2023/07/28 04:19:43;;;;;;;74.13;29.98;;;;;;;18.53;100.00;100525.25;5047896;28;20047;-73
2023/07/28 04:22:09;;;;;;;74.68;31.38;;;;;;;18.49;100.00;100523.88;5057525;28;20140;-73
2023/07/28 04:24:35;;;;;;;75.00;30.40;;;;;;;18.52;100.00;100526.25;5047251;28;20719;-73
2023/07/28 04:27:00;;;;;;;67.50;30.27;;;;;;;18.55;100.00;100527.78;5060795;28;20079;-73
2023/07/28 04:29:27;;;;;;;79.43;32.08;;;;;;;18.52;100.00;100531.66;5063427;28;20119;-73
2023/07/28 04:31:53;;;;;;;65.75;28.27;;;;;;;18.50;100.00;100530.97;5049143;28;20033;-73
2023/07/28 04:34:27;;;;;;;73.25;30.90;;;;;;;18.52;100.00;100533.50;5081006;28;20134;-73
2023/07/28 04:37:19;;;;;;;67.35;31.50;;;;;;;18.45;100.00;100540.53;5043195;28;20152;-73
2023/07/28 04:40:14;;;;;;;76.23;30.77;;;;;;;18.55;100.00;100547.53;5039929;28;20927;-72
2023/07/28 04:42:43;;;;;;;72.38;28.40;;;;;;;18.66;100.00;100549.16;5044234;28;20412;-73
2023/07/28 04:45:13;;;;;;;63.60;27.73;;;;;;;18.59;100.00;100540.84;5066043;28;20048;-73
2023/07/28 04:47:46;;;;;;;69.65;27.63;;;;;;;18.63;100.00;100546.78;5037128;28;20037;-73
2023/07/28 04:50:14;;;;;;;75.10;28.63;;;;;;;18.67;100.00;100542.75;5060358;28;20080;-73
2023/07/28 04:53:00;;;;;;;69.45;28.90;;;;;;;18.63;100.00;100552.19;5026009;28;1192166;-73
2023/07/28 04:55:31;;;;;;;73.97;30.58;;;;;;;18.57;100.00;100553.63;5050604;28;20048;-73
2023/07/28 04:57:57;;;;;;;64.07;27.85;;;;;;;18.67;100.00;100563.50;5067089;28;20065;-73
2023/07/28 05:00:25;;;;;;;73.93;29.80;;;;;;;18.64;100.00;100561.97;5049340;28;20045;-72
2023/07/28 05:02:51;;;;;;;83.28;30.50;;;;;;;18.63;100.00;100558.44;5063901;28;20549;-73
2023/07/28 05:05:17;;;;;;;74.45;29.55;;;;;;;18.57;100.00;100567.13;5048991;28;20549;-73
2023/07/28 05:07:43;;;;;;;81.00;30.50;;;;;;;18.73;100.00;100565.63;5049484;28;20041;-68
2023/07/28 05:10:15;;;;;;;80.18;28.60;;;;;;;18.64;100.00;100565.53;5048045;28;20084;-71
2023/07/28 05:12:45;;;;;;;84.35;32.55;;;;;;;18.65;100.00;100563.66;5048387;28;20041;-72
2023/07/28 05:15:11;;;;;;;86.90;34.55;;;;;;;18.67;100.00;100563.50;5047367;28;20124;-71
2023/07/28 05:17:38;;;;;;;78.10;28.63;;;;;;;18.77;100.00;100561.59;5048199;28;20103;-72
2023/07/28 05:20:22;;;;;;;89.63;32.83;;;;;;;18.84;100.00;100557.28;5045763;28;20331;-72
2023/07/28 05:22:55;;;;;;;85.95;33.88;;;;;;;18.84;100.00;100555.41;5044050;28;20036;-72
2023/07/28 05:25:23;;;;;;;100.57;34.78;;;;;;;18.87;100.00;100551.53;5051272;28;20788;-72
2023/07/28 05:27:49;;;;;;;85.57;33.95;;;;;;;18.83;100.00;100551.03;5079143;28;20084;-71
2023/07/28 05:30:15;;;;;;;85.57;33.30;;;;;;;18.82;100.00;100556.56;5043979;28;20600;-72
2023/07/28 05:32:42;;;;;;;98.45;37.00;;;;;;;18.81;100.00;100553.00;5041494;28;20056;-72
2023/07/28 05:35:20;;;;;;;93.28;35.40;;;;;;;18.84;100.00;100546.47;5043242;28;20060;-72
2023/07/28 05:37:46;;;;;;;98.15;35.28;;;;;;;18.87;100.00;100549.66;5045137;28;20086;-73
2023/07/28 05:40:13;;;;;;;83.65;33.75;;;;;;;19.00;100.00;100551.13;5046803;28;20063;-72
2023/07/28 05:42:39;;;;;;;85.30;33.35;;;;;;;18.92;100.00;100551.91;5042491;28;20081;-72
2023/07/28 05:45:06;;;;;;;83.18;33.70;;;;;;;18.98;100.00;100559.41;5062615;28;20131;-72
2023/07/28 05:47:32;;;;;;;94.03;36.50;;;;;;;18.92;100.00;100562.72;5045888;28;20037;-72
2023/07/28 05:49:57;;;;;;;91.30;35.00;;;;;;;18.89;100.00;100561.19;5078670;27;20036;-73
2023/07/28 05:52:23;;;;;;;90.40;36.58;;;;;;;18.83;100.00;100569.94;5078055;27;20514;-72
2023/07/28 05:54:48;;;;;;;100.43;37.25;;;;;;;18.93;100.00;100569.84;5046057;28;20049;-74
2023/07/28 05:57:15;;;;;;;91.00;37.63;;;;;;;18.91;100.00;100562.88;5040872;28;20033;-72
2023/07/28 05:59:44;;;;;;;109.18;38.08;;;;;;;19.02;100.00;100563.47;5048075;28;20045;-72
2023/07/28 06:02:15;;;;;;;95.55;36.13;;;;;;;19.02;100.00;100568.88;5047413;28;20029;-72
2023/07/28 06:04:49;;;;;;;86.93;35.00;;;;;;;18.99;100.00;100565.66;5034334;28;20579;-72
2023/07/28 06:07:15;;;;;;;82.93;33.33;;;;;;;19.05;100.00;100568.56;5041628;28;20079;-72
2023/07/28 06:09:44;;;;;;;78.93;33.08;;;;;;;19.19;100.00;100572.53;5058311;28;20068;-72
2023/07/28 06:12:13;;;;;;;80.15;34.38;;;;;;;19.30;100.00;100566.84;5046306;28;20130;-72
2023/07/28 06:14:39;;;;;;;65.93;31.13;;;;;;;19.24;100.00;100562.09;5029142;28;20029;-72
2023/07/28 06:17:09;;;;;;;77.13;32.83;;;;;;;19.37;100.00;100564.34;5023538;28;20052;-71
2023/07/28 06:19:35;;;;;;;70.53;32.40;;;;;;;19.30;100.00;100556.03;5028351;28;20037;-72
2023/07/28 06:22:01;;;;;;;74.70;31.35;;;;;;;19.33;100.00;100555.72;5059647;28;20048;-72
2023/07/28 06:24:28;;;;;;;69.85;30.27;;;;;;;19.36;100.00;100565.34;5045695;28;20207;-71
2023/07/28 06:26:56;;;;;;;66.90;30.83;;;;;;;19.48;100.00;100568.63;5060915;28;20092;-72
2023/07/28 06:29:22;;;;;;;69.20;29.88;;;;;;;19.48;100.00;100566.78;5047803;28;20878;-72
2023/07/28 06:31:47;;;;;;;68.60;28.63;;;;;;;19.46;100.00;100566.09;5054894;28;20033;-71
2023/07/28 06:34:16;;;;;;;67.30;30.13;;;;;;;19.40;100.00;100564.88;5044302;28;20033;-72
2023/07/28 06:36:43;;;;;;;62.13;26.92;;;;;;;19.45;100.00;100566.25;5046882;28;20060;-72
2023/07/28 06:39:09;;;;;;;74.95;31.83;;;;;;;19.55;100.00;100564.28;5056488;28;20039;-72
2023/07/28 06:41:35;;;;;;;65.97;27.73;;;;;;;19.50;100.00;100569.31;5046860;28;20799;-72
2023/07/28 06:44:02;;;;;;;58.47;27.05;;;;;;;19.57;100.00;100581.19;5053395;28;20038;-73
2023/07/28 06:46:28;;;;;;;58.58;28.80;;;;;;;19.73;100.00;100573.19;5040724;28;20564;-73
2023/07/28 06:48:54;;;;;;;53.60;27.77;;;;;;;19.87;100.00;100574.41;5046453;28;20077;-73
2023/07/28 06:51:19;;;;;;;62.25;29.88;;;;;;;20.03;100.00;100574.47;5037462;28;20033;-73
2023/07/28 06:53:45;;;;;;;54.53;25.60;;;;;;;20.02;100.00;100561.06;5046587;28;20114;-74
2023/07/28 06:56:12;;;;;;;53.35;24.52;;;;;;;20.16;100.00;100555.03;5047928;28;20037;-74
2023/07/28 06:58:38;;;;;;;55.03;26.95;;;;;;;20.28;100.00;100561.84;5040958;28;20084;-74
2023/07/28 07:01:03;;;;;;;52.60;26.40;;;;;;;20.26;100.00;100557.59;5046393;28;20029;-71
2023/07/28 07:03:29;;;;;;;54.63;26.63;;;;;;;20.32;100.00;100565.03;5045495;28;20033;-74
2023/07/28 07:05:55;;;;;;;56.03;27.08;;;;;;;20.17;100.00;100562.97;5044255;28;20044;-74
2023/07/28 07:08:20;;;;;;;51.00;26.20;;;;;;;20.33;100.00;100572.13;5041663;28;20401;-74
2023/07/28 07:10:50;;;;;;;46.97;25.40;;;;;;;20.18;100.00;100574.66;5055980;28;20087;-74
2023/07/28 07:13:16;;;;;;;49.78;25.70;;;;;;;19.88;100.00;100576.97;5047511;28;20037;-73
2023/07/28 07:15:42;;;;;;;49.72;25.58;;;;;;;19.85;100.00;100593.50;5047501;28;20040;-74
2023/07/28 07:18:08;;;;;;;47.75;25.77;;;;;;;19.84;100.00;100602.66;5060375;28;20040;-72
2023/07/28 07:20:38;;;;;;;49.05;26.60;;;;;;;19.88;100.00;100606.72;5049544;28;20029;-71
2023/07/28 07:23:04;;;;;;;46.35;24.95;;;;;;;19.78;100.00;100600.59;5041750;28;20044;-71
2023/07/28 07:25:30;;;;;;;55.20;27.55;;;;;;;19.73;100.00;100608.38;5074463;28;20260;-72
2023/07/28 07:27:56;;;;;;;52.45;25.90;;;;;;;19.84;100.00;100605.34;5053333;28;20055;-71
2023/07/28 07:30:22;;;;;;;52.55;27.02;;;;;;;19.90;100.00;100607.41;5044088;28;20095;-72
2023/07/28 07:32:48;;;;;;;53.75;26.95;;;;;;;19.99;100.00;100615.56;5046886;28;20083;-74
2023/07/28 07:35:14;;;;;;;61.83;26.45;;;;;;;19.96;100.00;100608.59;5055293;28;20638;-72
2023/07/28 07:37:46;;;;;;;58.63;28.25;;;;;;;20.09;100.00;100611.72;5045010;28;20037;-71
2023/07/28 07:40:14;;;;;;;52.78;27.85;;;;;;;19.98;100.00;100612.00;5046220;28;20057;-74
2023/07/28 07:42:48;;;;;;;53.70;25.77;;;;;;;20.04;100.00;100616.75;5045711;28;20025;-74
2023/07/28 07:45:15;;;;;;;48.22;26.35;;;;;;;20.07;100.00;100612.88;5044618;28;20103;-74
2023/07/28 07:47:42;;;;;;;55.50;26.60;;;;;;;20.08;100.00;100617.25;5039590;28;20125;-72
2023/07/28 07:50:13;;;;;;;50.28;25.83;;;;;;;20.20;100.00;100609.69;5040099;28;20065;-73
2023/07/28 07:52:40;;;;;;;47.58;23.90;;;;;;;20.46;100.00;100601.44;5079018;28;20029;-73
2023/07/28 07:55:06;;;;;;;43.72;23.02;;;;;;;20.66;100.00;100600.16;5044006;28;20045;-74
2023/07/28 07:57:32;;;;;;;44.60;23.85;;;;;;;20.86;100.00;100601.50;5044859;28;20047;-73
2023/07/28 07:59:58;;;;;;;42.65;22.80;;;;;;;20.95;100.00;100602.34;5044138;28;20040;-71
2023/07/28 08:02:24;;;;;;;41.90;21.95;;;;;;;21.00;100.00;100593.72;5048246;28;20037;-74
2023/07/28 08:04:55;;;;;;;43.17;22.60;;;;;;;21.32;100.00;100587.41;5052326;28;20033;-74
2023/07/28 08:07:22;;;;;;;35.58;21.50;;;;;;;21.15;100.00;100590.13;5039797;28;20119;-73
2023/07/28 08:09:47;;;;;;;40.17;21.63;;;;;;;21.32;100.00;100599.09;5055216;28;20208;-71
2023/07/28 08:12:15;;;;;;;34.38;21.25;;;;;;;21.04;100.00;100601.34;5034469;28;20124;-73
2023/07/28 08:14:43;;;;;;;32.17;20.17;;;;;;;20.77;100.00;100607.94;5050040;28;20106;-74
2023/07/28 08:17:10;;;;;;;39.53;20.73;;;;;;;20.90;100.00;100602.03;5036890;28;20036;-73
2023/07/28 08:19:35;;;;;;;32.25;19.98;;;;;;;20.88;100.00;100613.03;5039191;28;20038;-74
2023/07/28 08:22:05;;;;;;;35.90;19.92;;;;;;;21.08;100.00;100612.66;5049164;28;20036;-73
2023/07/28 08:24:31;;;;;;;33.45;18.55;;;;;;;21.41;100.00;100600.78;5046536;28;20537;-74
2023/07/28 08:26:57;;;;;;;38.42;20.98;;;;;;;21.64;100.00;100610.91;5045074;28;20544;-74
2023/07/28 08:29:22;;;;;;;31.77;18.30;;;;;;;21.52;100.00;100599.56;5049471;28;20038;-75
2023/07/28 08:31:48;;;;;;;35.72;18.70;;;;;;;21.72;100.00;100598.13;5050163;28;20476;-73
2023/07/28 08:34:17;;;;;;;24.58;16.05;;;;;;;21.87;100.00;100600.94;5049843;28;20095;-73
2023/07/28 08:36:43;;;;;;;30.08;17.38;;;;;;;21.75;100.00;100596.09;5054968;28;20037;-73
2023/07/28 08:39:14;;;;;;;28.25;16.35;;;;;;;21.66;100.00;100598.84;5071421;27;20033;-73
2023/07/28 08:41:45;;;;;;;27.42;15.73;;;;;;;21.66;100.00;100601.56;5047758;28;20037;-73
2023/07/28 08:44:17;;;;;;;27.10;16.25;;;;;;;21.78;100.00;100606.59;5044770;28;20190;-74
2023/07/28 08:46:43;;;;;;;27.42;16.15;;;;;;;21.86;100.00;100599.25;5050035;28;20041;-73
2023/07/28 08:49:09;;;;;;;22.17;15.63;;;;;;;22.16;100.00;100599.50;5050914;28;20041;-74
2023/07/28 08:51:34;;;;;;;28.83;17.80;;;;;;;22.34;100.00;100599.19;5048948;28;20056;-74
2023/07/28 08:54:00;;;;;;;24.42;15.85;;;;;;;22.68;100.00;100593.34;5050984;28;20632;-75
2023/07/28 08:56:27;;;;;;;23.17;15.70;;;;;;;22.78;100.00;100593.94;5046225;28;20689;-74
2023/07/28 08:59:00;;;;;;;25.77;15.98;;;;;;;22.48;100.00;100588.41;5047801;28;20078;-74
2023/07/28 09:01:25;;;;;;;24.55;16.27;;;;;;;22.61;100.00;100600.56;5045601;28;20142;-74
2023/07/28 09:03:51;;;;;;;22.20;15.57;;;;;;;22.81;100.00;100601.75;5045667;28;20046;-75
2023/07/28 09:06:18;;;;;;;20.95;14.75;;;;;;;23.04;100.00;100609.03;5052701;28;20037;-72
2023/07/28 09:08:44;;;;;;;22.95;16.35;;;;;;;22.76;100.00;100604.16;5059890;28;20092;-74
2023/07/28 09:11:18;;;;;;;26.10;17.42;;;;;;;22.79;100.00;100606.50;5033542;28;20460;-74
2023/07/28 09:13:44;;;;;;;31.30;16.10;;;;;;;22.59;100.00;100605.31;5040404;28;20292;-75
2023/07/28 09:16:20;;;;;;;22.08;15.95;;;;;;;22.30;100.00;100614.19;5047576;28;20111;-74
2023/07/28 09:18:46;;;;;;;23.27;16.10;;;;;;;22.41;100.00;100609.19;5045850;28;20664;-75
2023/07/28 09:21:20;;;;;;;30.33;17.63;;;;;;;22.34;100.00;100615.50;5058766;28;20071;-74
2023/07/28 09:23:48;;;;;;;25.13;16.50;;;;;;;22.18;100.00;100614.56;5032057;28;20136;-74
2023/07/28 09:26:17;;;;;;;28.02;16.52;;;;;;;22.39;100.00;100619.41;5046595;28;20871;-73
2023/07/28 09:28:43;;;;;;;29.65;18.77;;;;;;;22.38;100.00;100620.41;5038554;28;20165;-73
2023/07/28 09:31:10;;;;;;;28.67;18.30;;;;;;;22.45;100.00;100618.66;5046846;28;20040;-73
2023/07/28 09:33:42;;;;;;;25.67;18.52;;;;;;;22.61;100.00;100616.88;5044140;28;20036;-73
2023/07/28 09:36:17;;;;;;;26.50;18.13;;;;;;;22.73;100.00;100618.13;5053931;28;20071;-74
2023/07/28 09:38:44;;;;;;;25.13;17.13;;;;;;;23.05;100.00;100617.03;5045143;28;20080;-74
2023/07/28 09:41:17;;;;;;;27.92;18.25;;;;;;;23.16;100.00;100616.59;5041947;28;20091;-73
2023/07/28 09:43:44;;;;;;;25.60;17.27;;;;;;;23.65;100.00;100620.72;5048029;28;20111;-73
2023/07/28 09:46:11;;;;;;;27.85;16.80;;;;;;;23.65;100.00;100621.56;5046513;28;20071;-73
2023/07/28 09:48:40;;;;;;;26.33;16.95;;;;;;;23.65;100.00;100616.13;5063258;28;20214;-73
2023/07/28 09:51:12;;;;;;;24.38;16.75;;;;;;;23.74;100.00;100614.13;5039825;28;20029;-73
2023/07/28 09:53:46;;;;;;;27.27;19.10;;;;;;;23.89;100.00;100614.09;5046800;28;20049;-73
2023/07/28 09:56:18;;;;;;;26.87;17.70;;;;;;;24.01;100.00;100624.34;5043190;28;20049;-73
2023/07/28 09:58:50;;;;;;;25.92;17.33;;;;;;;24.47;100.00;100613.16;5046213;28;20043;-73
2023/07/28 10:01:16;;;;;;;24.27;18.10;;;;;;;24.34;100.00;100606.69;5048129;28;20040;-74
2023/07/28 10:03:43;;;;;;;26.30;19.20;;;;;;;24.10;100.00;100616.03;5041226;28;20053;-72
2023/07/28 10:06:09;;;;;;;27.80;19.30;;;;;;;24.04;100.00;100614.94;5022158;28;20073;-74
2023/07/28 10:08:35;;;;;;;23.05;17.48;;;;;;;23.76;100.00;100625.69;5039026;28;20037;-75
2023/07/28 10:11:04;;;;;;;29.45;18.35;;;;;;;23.83;100.00;100612.16;5036204;28;20037;-75
2023/07/28 10:13:40;;;;;;;30.88;20.00;;;;;;;24.06;100.00;100615.59;5045109;28;20090;-74
2023/07/28 10:16:06;;;;;;;23.38;18.15;;;;;;;24.68;100.00;100616.94;5036931;28;20037;-74
2023/07/28 10:18:32;;;;;;;24.17;18.85;;;;;;;24.97;100.00;100618.66;5045939;28;20597;-73
2023/07/28 10:21:06;;;;;;;27.00;18.85;;;;;;;25.68;100.00;100613.13;5040001;28;20157;-74
2023/07/28 10:23:36;;;;;;;24.35;19.20;;;;;;;25.96;100.00;100615.81;5027484;28;20043;-71
2023/07/28 10:26:05;;;;;;;25.52;18.58;;;;;;;26.41;100.00;100611.56;5071412;28;20458;-73
2023/07/28 10:28:40;;;;;;;24.05;18.83;;;;;;;26.12;100.00;100610.00;5044014;28;20037;-73
2023/07/28 10:31:11;;;;;;;24.08;17.83;;;;;;;25.99;99.66;100618.13;5030639;28;20048;-73
2023/07/28 10:33:41;;;;;;;23.95;17.20;;;;;;;25.37;100.00;100614.41;5045798;28;20106;-75
2023/07/28 10:36:17;;;;;;;24.00;17.42;;;;;;;25.03;100.00;100612.41;5022542;28;20137;-75
2023/07/28 10:38:43;;;;;;;22.90;16.38;;;;;;;25.43;100.00;100612.75;5042968;28;20041;-73
2023/07/28 10:41:16;;;;;;;22.27;17.15;;;;;;;25.39;100.00;100609.56;5037584;28;20022;-74
2023/07/28 10:43:45;;;;;;;22.00;16.80;;;;;;;25.57;100.00;100611.78;5042272;28;20086;-73
2023/07/28 10:46:16;;;;;;;27.55;18.27;;;;;;;25.13;100.00;100606.66;5055781;28;20045;-75
2023/07/28 10:48:48;;;;;;;23.17;18.45;;;;;;;25.50;100.00;100611.75;5045816;28;20040;-74
2023/07/28 10:51:25;;;;;;;21.98;18.48;;;;;;;25.51;100.00;100604.41;5038605;28;20064;-73
2023/07/28 10:54:04;;;;;;;22.67;16.85;;;;;;;25.68;98.55;100613.97;5041039;28;20037;-74
2023/07/28 10:56:29;;;;;;;22.58;17.58;;;;;;;26.12;97.52;100609.16;5040648;28;21191;-75
2023/07/28 10:59:04;;;;;;;24.30;18.25;;;;;;;26.22;96.26;100621.38;5045523;28;20028;-73
2023/07/28 11:01:43;;;;;;;20.38;16.70;;;;;;;26.47;92.66;100613.50;5041145;28;20040;-73
2023/07/28 11:04:19;;;;;;;18.63;15.50;;;;;;;27.05;89.61;100618.38;5046464;28;20126;-75
2023/07/28 11:06:47;;;;;;;22.27;16.38;;;;;;;27.00;88.72;100610.81;5044264;28;20076;-74